Terminal Aerodrome Forecast
Issued by NWS

Current Version | Previous Version | Text Only | Print | Product List | Glossary On
Versions: 1 2 3 4 5 6 7 8 9 10 11 12 13 14 15
966
FTUS43 KOAX 281142
TAFSNY
TAF
KSNY 281142Z 2812/0112 31010KT P6SM OVC200
     FM281700 33020G30KT P6SM BKN040=

USA.gov is the U.S. government's official web portal to all federal, state and local government web resources and services.